createdAt,value
2018-08-12T00:01:19.939Z,0.00
2018-08-12T00:12:29.536Z,0.00
2018-08-12T00:16:24.872Z,0.00
2018-08-12T00:21:20.032Z,0.00
2018-08-12T00:29:46.441Z,0.00
2018-08-12T00:30:49.242Z,0.00
2018-08-12T00:33:50.410Z,0.00
2018-08-12T00:41:18.289Z,0.00
2018-08-12T00:45:18.876Z,0.00
2018-08-12T00:48:16.533Z,0.00
2018-08-12T00:51:59.257Z,0.00
2018-08-12T01:03:52.851Z,0.00
2018-08-12T01:09:42.600Z,0.00
2018-08-12T01:10:42.597Z,0.00
2018-08-12T01:23:02.659Z,0.00
2018-08-12T01:29:05.270Z,0.00
2018-08-12T01:34:41.974Z,0.00
2018-08-12T01:35:42.405Z,0.00
2018-08-12T01:55:43.352Z,0.00
2018-08-12T02:11:15.990Z,0.00
2018-08-12T02:21:39.291Z,0.00
2018-08-12T02:26:58.321Z,0.00
2018-08-12T02:30:47.924Z,0.00
2018-08-12T02:33:01.732Z,0.00
2018-08-12T02:40:24.449Z,0.00
2018-08-12T02:55:09.884Z,0.00
2018-08-12T03:14:32.532Z,0.00
2018-08-12T03:17:28.310Z,0.00
2018-08-12T03:18:29.458Z,0.00
2018-08-12T03:19:48.700Z,0.00
2018-08-12T03:20:27.480Z,0.00
2018-08-12T03:24:07.920Z,0.00
2018-08-12T03:25:08.153Z,0.00
2018-08-12T03:34:32.082Z,0.00
2018-08-12T03:45:48.612Z,4.00
2018-08-12T03:49:34.176Z,8.00
2018-08-12T04:10:27.235Z,96.00
2018-08-12T04:11:53.927Z,104.00
2018-08-12T04:12:27.166Z,116.00
2018-08-12T04:25:10.355Z,384.00
2018-08-12T04:28:11.371Z,480.00
2018-08-12T04:36:07.705Z,764.00
2018-08-12T05:23:35.934Z,1744.00
2018-08-12T06:01:14.674Z,2492.00
2018-08-12T06:02:09.852Z,2528.00
2018-08-12T06:24:06.356Z,3040.00
2018-08-12T06:25:05.003Z,2764.00
2018-08-12T10:25:37.676Z,6152.00
2018-08-12T10:38:55.188Z,5808.00
2018-08-12T10:39:39.615Z,5664.00
2018-08-12T10:40:36.718Z,5568.00
2018-08-12T10:41:37.636Z,5776.00
2018-08-12T10:44:45.727Z,5340.00
2018-08-12T10:47:07.173Z,5404.00
2018-08-12T11:06:38.959Z,5076.00
2018-08-12T11:07:38.704Z,5176.00
2018-08-12T11:10:25.882Z,5400.00
2018-08-12T11:11:39.174Z,5344.00
2018-08-12T11:12:24.680Z,5364.00
2018-08-12T11:16:43.107Z,5380.00
2018-08-12T11:24:45.074Z,5932.00
2018-08-12T11:27:27.997Z,6076.00
2018-08-12T11:28:25.261Z,6100.00
2018-08-12T11:30:59.236Z,6304.00
2018-08-12T11:31:58.902Z,6660.00
2018-08-12T11:32:59.109Z,6788.00
2018-08-12T11:34:09.345Z,7164.00
2018-08-12T11:35:56.811Z,7532.00
2018-08-12T11:36:55.705Z,7252.00
2018-08-12T11:38:55.714Z,6960.00
2018-08-12T11:39:54.776Z,7016.00
2018-08-12T11:40:54.189Z,7060.00
2018-08-12T11:41:54.794Z,7136.00
2018-08-12T11:42:53.867Z,7232.00
2018-08-12T11:43:53.839Z,7260.00
2018-08-12T11:44:53.786Z,7308.00
2018-08-12T11:45:53.817Z,7316.00
2018-08-12T11:46:53.717Z,7408.00
2018-08-12T11:47:53.756Z,7384.00
2018-08-12T11:48:53.693Z,7660.00
2018-08-12T11:49:53.842Z,7812.00
2018-08-12T11:50:53.733Z,8044.00
2018-08-12T11:51:53.723Z,8192.00
2018-08-12T11:52:53.697Z,8432.00
2018-08-12T11:53:53.715Z,8332.00
2018-08-12T11:54:53.622Z,8280.00
2018-08-12T11:55:53.640Z,7896.00
2018-08-12T11:56:53.603Z,8772.00
2018-08-12T11:57:53.598Z,8796.00
2018-08-12T11:58:53.653Z,9024.00
2018-08-12T11:59:53.480Z,8996.00
2018-08-12T12:00:53.745Z,8960.00
2018-08-12T12:03:23.931Z,8972.00
2018-08-12T12:04:23.423Z,9044.00
2018-08-12T12:06:17.785Z,8420.00
2018-08-12T12:07:17.313Z,8432.00
2018-08-12T12:09:21.920Z,8928.00
2018-08-12T12:10:21.585Z,8736.00
2018-08-12T12:12:27.036Z,9468.00
2018-08-12T12:13:26.866Z,10416.00
2018-08-12T12:15:25.255Z,9808.00
2018-08-12T12:16:24.428Z,10232.00
2018-08-12T12:18:28.922Z,10064.00
2018-08-12T12:21:29.743Z,10140.00
2018-08-12T12:22:29.664Z,10008.00
2018-08-12T12:24:41.185Z,10040.00
2018-08-12T12:25:40.971Z,10160.00
2018-08-12T12:27:36.311Z,9812.00
2018-08-12T12:28:35.761Z,9900.00
2018-08-12T12:30:33.313Z,10488.00
2018-08-12T12:31:33.106Z,10376.00
2018-08-12T12:33:37.673Z,10384.00
2018-08-12T12:34:38.322Z,10348.00
2018-08-12T12:36:53.051Z,10784.00
2018-08-12T12:37:49.803Z,10832.00
2018-08-12T12:38:49.954Z,11012.00
2018-08-12T12:39:50.404Z,11052.00
2018-08-12T12:40:49.453Z,11332.00
2018-08-12T12:42:05.077Z,11368.00
2018-08-12T12:43:52.928Z,11488.00
2018-08-12T12:44:52.841Z,11644.00
2018-08-12T12:46:58.441Z,11776.00
2018-08-12T12:47:58.144Z,11992.00
2018-08-12T12:49:59.081Z,11452.00
2018-08-12T12:50:59.604Z,11584.00
2018-08-12T12:53:22.409Z,11604.00
2018-08-12T12:54:21.371Z,11076.00
2018-08-12T12:56:13.358Z,12076.00
2018-08-12T12:57:13.020Z,12324.00
2018-08-12T12:59:23.648Z,12076.00
2018-08-12T13:00:23.346Z,12080.00
2018-08-12T13:02:28.618Z,12472.00
2018-08-12T13:03:49.728Z,12136.00
2018-08-12T13:05:25.602Z,12516.00
2018-08-12T13:06:25.600Z,12256.00
2018-08-12T13:08:23.628Z,12356.00
2018-08-12T13:09:24.430Z,12752.00
2018-08-12T13:11:24.189Z,12640.00
2018-08-12T13:12:24.576Z,12880.00
2018-08-12T13:14:33.746Z,13364.00
2018-08-12T13:15:33.310Z,13192.00
2018-08-12T13:17:33.626Z,12596.00
2018-08-12T13:18:33.325Z,13508.00
2018-08-12T13:20:29.437Z,12764.00
2018-08-12T13:21:29.022Z,12948.00
2018-08-12T13:23:39.150Z,13116.00
2018-08-12T13:24:55.856Z,13492.00
2018-08-12T13:26:39.609Z,13520.00
2018-08-12T13:27:39.383Z,13668.00
2018-08-12T13:29:43.072Z,14368.00
2018-08-12T13:30:43.367Z,14120.00
2018-08-12T13:32:42.186Z,13736.00
2018-08-12T13:33:42.286Z,13656.00
2018-08-12T13:34:41.757Z,13560.00
2018-08-12T13:35:41.901Z,14268.00
2018-08-12T13:36:41.801Z,14380.00
2018-08-12T13:37:41.556Z,13660.00
2018-08-12T13:38:41.614Z,14224.00
2018-08-12T13:39:41.672Z,14368.00
2018-08-12T13:40:41.596Z,14612.00
2018-08-12T13:41:41.727Z,14860.00
2018-08-12T13:42:41.505Z,14928.00
2018-08-12T13:43:41.552Z,14852.00
2018-08-12T13:44:41.488Z,14760.00
2018-08-12T13:45:41.468Z,14704.00
2018-08-12T13:46:41.506Z,14364.00
2018-08-12T13:47:41.495Z,15012.00
2018-08-12T13:48:41.552Z,14592.00
2018-08-12T13:49:41.432Z,14636.00
2018-08-12T13:50:43.234Z,15052.00
2018-08-12T13:51:41.435Z,14968.00
2018-08-12T13:52:41.413Z,16004.00
2018-08-12T13:53:41.500Z,15984.00
2018-08-12T13:54:42.152Z,16024.00
2018-08-12T13:55:41.377Z,16156.00
2018-08-12T13:56:41.368Z,15828.00
2018-08-12T13:57:41.434Z,16448.00
2018-08-12T13:58:41.438Z,16640.00
2018-08-12T14:01:26.177Z,17248.00
2018-08-12T14:02:42.050Z,17408.00
2018-08-12T14:04:29.949Z,17216.00
2018-08-12T14:05:29.670Z,17472.00
2018-08-12T14:07:32.452Z,20096.00
2018-08-12T14:08:32.382Z,20224.00
2018-08-12T14:10:38.783Z,22432.00
2018-08-12T14:11:38.485Z,22112.00
2018-08-12T14:13:43.164Z,23872.00
2018-08-12T14:14:42.921Z,25856.00
2018-08-12T14:16:40.139Z,28576.00
2018-08-12T14:17:40.253Z,28704.00
2018-08-12T14:19:44.842Z,31264.00
2018-08-12T14:20:43.144Z,32736.00
2018-08-12T14:22:46.600Z,40000.00
2018-08-12T14:23:46.725Z,45376.00
2018-08-12T14:25:42.887Z,52672.00
2018-08-12T14:26:42.816Z,55008.00
2018-08-12T14:28:41.724Z,64192.00
2018-08-12T14:29:41.647Z,63712.00
2018-08-12T14:31:44.736Z,54496.00
2018-08-12T14:32:45.101Z,63520.00
2018-08-12T14:34:42.868Z,54144.00
2018-08-12T14:35:42.862Z,40064.00
2018-08-12T14:37:39.416Z,46400.00
2018-08-12T14:38:39.252Z,51072.00
2018-08-12T14:39:39.823Z,42560.00
2018-08-12T14:40:39.271Z,40544.00
2018-08-12T14:41:39.130Z,43008.00
2018-08-12T14:42:39.118Z,38560.00
2018-08-12T14:43:39.099Z,40928.00
2018-08-12T14:44:39.212Z,34432.00
2018-08-12T14:45:39.209Z,37408.00
2018-08-12T14:46:39.093Z,36896.00
2018-08-12T14:47:39.070Z,37376.00
2018-08-12T14:48:39.135Z,38080.00
2018-08-12T14:49:39.044Z,37888.00
2018-08-12T14:50:39.040Z,37696.00
2018-08-12T14:51:39.306Z,37952.00
2018-08-12T14:52:39.129Z,35392.00
2018-08-12T14:53:39.039Z,34528.00
2018-08-12T14:54:39.050Z,35040.00
2018-08-12T14:55:39.004Z,36000.00
2018-08-12T14:56:39.035Z,38784.00
2018-08-12T14:57:39.039Z,40960.00
2018-08-12T14:58:39.116Z,41440.00
2018-08-12T14:59:39.015Z,41088.00
2018-08-12T15:00:38.974Z,40736.00
2018-08-12T15:01:39.059Z,41088.00
2018-08-12T15:03:12.402Z,40032.00
2018-08-12T15:03:39.239Z,37504.00
2018-08-12T15:04:40.497Z,40256.00
2018-08-12T15:05:39.627Z,37088.00
2018-08-12T15:08:33.533Z,30944.00
2018-08-12T15:09:30.028Z,31488.00
2018-08-12T15:10:29.958Z,31104.00
2018-08-12T15:11:30.317Z,32896.00
2018-08-12T15:12:30.139Z,29760.00
2018-08-12T15:13:29.749Z,34688.00
2018-08-12T15:14:29.661Z,35648.00
2018-08-12T15:15:29.703Z,35136.00
2018-08-12T15:16:29.616Z,42272.00
2018-08-12T15:17:29.614Z,40032.00
2018-08-12T15:18:29.678Z,33536.00
2018-08-12T15:19:29.593Z,34240.00
2018-08-12T15:20:29.601Z,39968.00
2018-08-12T15:21:29.590Z,40288.00
2018-08-12T15:22:29.680Z,38656.00
2018-08-12T15:23:29.571Z,36416.00
2018-08-12T15:24:29.632Z,38144.00
2018-08-12T15:25:29.572Z,26688.00
2018-08-12T15:26:29.587Z,40512.00
2018-08-12T15:27:31.321Z,46496.00
2018-08-12T15:28:29.549Z,43264.00
2018-08-12T15:29:31.108Z,48896.00
2018-08-12T15:30:29.589Z,50560.00
2018-08-12T15:31:29.517Z,52032.00
2018-08-12T15:32:29.596Z,58816.00
2018-08-12T15:33:29.506Z,58144.00
2018-08-12T15:34:29.505Z,58720.00
2018-08-12T15:35:29.569Z,64160.00
2018-08-12T15:36:32.264Z,65696.00
2018-08-12T15:37:29.546Z,66272.00
2018-08-12T15:38:29.545Z,63552.00
2018-08-12T15:39:29.566Z,65312.00
2018-08-12T15:40:29.461Z,66848.00
2018-08-12T15:41:29.463Z,65824.00
2018-08-12T15:42:29.456Z,69056.00
2018-08-12T15:43:29.620Z,68480.00
2018-08-12T15:44:29.464Z,68288.00
2018-08-12T15:45:29.556Z,50752.00
2018-08-12T15:46:29.478Z,56832.00
2018-08-12T15:47:29.505Z,63776.00
2018-08-12T15:48:32.176Z,44704.00
2018-08-12T15:49:29.409Z,57856.00
2018-08-12T15:50:29.405Z,42752.00
2018-08-12T15:51:29.399Z,56448.00
2018-08-12T15:52:29.397Z,54528.00
2018-08-12T15:53:38.733Z,50720.00
2018-08-12T15:55:50.130Z,51584.00
2018-08-12T15:56:31.745Z,70304.00
2018-08-12T15:58:36.363Z,78496.00
2018-08-12T15:59:36.445Z,77376.00
2018-08-12T16:00:35.858Z,79712.00
2018-08-12T16:01:35.759Z,74400.00
2018-08-12T16:02:35.693Z,73344.00
2018-08-12T16:03:37.608Z,56864.00
2018-08-12T16:04:35.659Z,62784.00
2018-08-12T16:05:35.666Z,52160.00
2018-08-12T16:06:37.620Z,58240.00
2018-08-12T16:07:35.683Z,55008.00
2018-08-12T16:08:35.653Z,57568.00
2018-08-12T16:09:35.664Z,49312.00
2018-08-12T16:10:35.675Z,50848.00
2018-08-12T16:11:37.319Z,74464.00
2018-08-12T16:13:35.592Z,17216.00
2018-08-12T16:14:35.592Z,21440.00
2018-08-12T16:15:35.642Z,19424.00
2018-08-12T16:16:35.748Z,28448.00
2018-08-12T16:17:35.567Z,22144.00
2018-08-12T16:18:35.584Z,13276.00
2018-08-12T16:19:35.556Z,8940.00
2018-08-12T16:20:35.545Z,8816.00
2018-08-12T16:21:35.568Z,9228.00
2018-08-12T16:22:35.620Z,12040.00
2018-08-12T16:23:35.526Z,9236.00
2018-08-12T16:24:35.504Z,12116.00
2018-08-12T16:25:35.490Z,11336.00
2018-08-12T16:26:35.469Z,8096.00
2018-08-12T16:27:35.506Z,12992.00
2018-08-12T16:28:37.152Z,7724.00
2018-08-12T16:29:37.162Z,7704.00
2018-08-12T16:30:35.425Z,7636.00
2018-08-12T16:31:35.415Z,7544.00
2018-08-12T16:32:35.404Z,7512.00
2018-08-12T16:33:35.377Z,7556.00
2018-08-12T16:34:35.354Z,7720.00
2018-08-12T16:35:35.347Z,7648.00
2018-08-12T16:36:35.343Z,7592.00
2018-08-12T16:37:35.393Z,7552.00
2018-08-12T16:38:35.306Z,7576.00
2018-08-12T16:39:35.701Z,7580.00
2018-08-12T16:40:35.328Z,7464.00
2018-08-12T16:41:35.256Z,7404.00
2018-08-12T16:42:35.241Z,7300.00
2018-08-12T16:43:35.244Z,7264.00
2018-08-12T16:44:35.222Z,7252.00
2018-08-12T16:45:35.208Z,7220.00
2018-08-12T16:46:35.187Z,7184.00
2018-08-12T16:47:35.203Z,7172.00
2018-08-12T16:48:35.170Z,7020.00
2018-08-12T16:49:35.139Z,6940.00
2018-08-12T16:50:35.147Z,6956.00
2018-08-12T16:51:35.129Z,6940.00
2018-08-12T16:52:35.096Z,6908.00
2018-08-12T16:53:35.073Z,6988.00
2018-08-12T16:54:35.100Z,7212.00
2018-08-12T16:55:35.083Z,7048.00
2018-08-12T16:56:35.060Z,6940.00
2018-08-12T16:57:35.029Z,6684.00
2018-08-12T16:58:34.992Z,6624.00
2018-08-12T16:59:35.505Z,6604.00
2018-08-12T17:00:34.986Z,6676.00
2018-08-12T17:01:34.942Z,6848.00
2018-08-12T17:02:34.966Z,6904.00
2018-08-12T17:03:34.927Z,6972.00
2018-08-12T17:04:36.653Z,7112.00
2018-08-12T17:05:36.590Z,8272.00
2018-08-12T17:06:34.946Z,7908.00
2018-08-12T17:07:34.882Z,7428.00
2018-08-12T17:08:37.831Z,7256.00
2018-08-12T17:09:34.876Z,7092.00
2018-08-12T17:10:34.889Z,7032.00
2018-08-12T17:11:34.818Z,7024.00
2018-08-12T17:12:34.799Z,6908.00
2018-08-12T17:13:34.767Z,7044.00
2018-08-12T17:14:34.745Z,6916.00
2018-08-12T17:15:35.146Z,7012.00
2018-08-12T17:16:34.707Z,7576.00
2018-08-12T17:17:34.705Z,7316.00
2018-08-12T17:18:55.946Z,6932.00
2018-08-12T17:19:35.739Z,6672.00
2018-08-12T17:20:34.773Z,6532.00
2018-08-12T17:21:34.666Z,6392.00
2018-08-12T17:22:34.733Z,6348.00
2018-08-12T17:23:34.685Z,6284.00
2018-08-12T17:24:34.692Z,6172.00
2018-08-12T17:25:34.617Z,6088.00
2018-08-12T17:26:34.569Z,5980.00
2018-08-12T17:27:34.589Z,5780.00
2018-08-12T17:28:34.503Z,5656.00
2018-08-12T17:29:35.445Z,5616.00
2018-08-12T17:30:34.550Z,5580.00
2018-08-12T17:31:34.527Z,5560.00
2018-08-12T17:32:36.185Z,5516.00
2018-08-12T17:33:34.463Z,5460.00
2018-08-12T17:34:36.299Z,5388.00
2018-08-12T17:35:34.555Z,5360.00
2018-08-12T17:36:34.356Z,5348.00
2018-08-12T17:37:34.418Z,5324.00
2018-08-12T17:38:34.441Z,5236.00
2018-08-12T17:39:34.303Z,5196.00
2018-08-12T17:40:34.299Z,5116.00
2018-08-12T17:41:34.301Z,4752.00
2018-08-12T17:42:34.313Z,4524.00
2018-08-12T17:43:34.234Z,4344.00
2018-08-12T17:44:34.410Z,4176.00
2018-08-12T17:45:34.211Z,4048.00
2018-08-12T17:46:34.200Z,3908.00
2018-08-12T17:47:34.167Z,3784.00
2018-08-12T17:48:34.313Z,3700.00
2018-08-12T17:49:34.245Z,3648.00
2018-08-12T17:50:34.184Z,3544.00
2018-08-12T17:51:34.259Z,3444.00
2018-08-12T17:52:35.651Z,3348.00
2018-08-12T17:53:34.119Z,3256.00
2018-08-12T17:54:34.843Z,3176.00
2018-08-12T17:55:34.043Z,3100.00
2018-08-12T17:56:34.002Z,3020.00
2018-08-12T17:57:34.054Z,2932.00
2018-08-12T17:58:33.961Z,2828.00
2018-08-12T17:59:33.969Z,2748.00
2018-08-12T18:00:33.927Z,2688.00
2018-08-12T18:01:33.911Z,2620.00
2018-08-12T18:02:33.954Z,2576.00
2018-08-12T18:03:33.988Z,2548.00
2018-08-12T18:04:33.857Z,2532.00
2018-08-12T18:05:33.940Z,2524.00
2018-08-12T18:06:36.582Z,2532.00
2018-08-12T18:07:33.799Z,2540.00
2018-08-12T18:08:50.972Z,2544.00
2018-08-12T18:10:32.364Z,2528.00
2018-08-12T18:11:32.298Z,2540.00
2018-08-12T18:13:54.615Z,2500.00
2018-08-12T18:14:35.095Z,2452.00
2018-08-12T18:16:32.999Z,2292.00
2018-08-12T18:17:33.089Z,2204.00
2018-08-12T18:19:34.546Z,1992.00
2018-08-12T18:20:34.316Z,1880.00
2018-08-12T18:21:49.009Z,1764.00
2018-08-12T18:23:32.123Z,1540.00
2018-08-12T18:24:31.588Z,1440.00
2018-08-12T18:29:42.824Z,1164.00
2018-08-12T18:30:00.802Z,1124.00
2018-08-12T18:32:06.162Z,1032.00
2018-08-12T18:33:05.110Z,984.00
2018-08-12T18:35:00.136Z,904.00
2018-08-12T18:36:00.584Z,876.00
2018-08-12T18:38:00.492Z,792.00
2018-08-12T18:39:00.974Z,744.00
2018-08-12T18:40:57.247Z,668.00
2018-08-12T18:41:57.456Z,640.00
2018-08-12T18:43:54.454Z,596.00
2018-08-12T18:44:52.293Z,576.00
2018-08-12T18:46:56.326Z,512.00
2018-08-12T18:47:56.056Z,464.00
2018-08-12T18:48:55.147Z,412.00
2018-08-12T18:49:55.215Z,368.00
2018-08-12T18:50:54.716Z,324.00
2018-08-12T18:51:54.563Z,288.00
2018-08-12T18:52:54.230Z,256.00
2018-08-12T18:53:54.223Z,228.00
2018-08-12T18:54:54.273Z,200.00
2018-08-12T18:55:54.841Z,180.00
2018-08-12T18:56:54.173Z,164.00
2018-08-12T18:57:54.175Z,152.00
2018-08-12T18:58:54.148Z,140.00
2018-08-12T18:59:54.122Z,132.00
2018-08-12T19:00:54.111Z,124.00
2018-08-12T19:02:07.807Z,120.00
2018-08-12T19:03:53.641Z,112.00
2018-08-12T19:04:53.219Z,104.00
2018-08-12T19:06:53.922Z,84.00
2018-08-12T19:07:54.129Z,72.00
2018-08-12T19:09:52.818Z,56.00
2018-08-12T19:12:54.562Z,44.00
2018-08-12T19:13:54.373Z,40.00
2018-08-12T19:15:56.713Z,36.00
2018-08-12T19:16:53.796Z,32.00
2018-08-12T19:18:55.061Z,24.00
2018-08-12T19:19:54.970Z,20.00
2018-08-12T19:21:52.423Z,16.00
2018-08-12T19:22:52.360Z,16.00
2018-08-12T19:23:52.167Z,12.00
2018-08-12T19:24:51.348Z,12.00
2018-08-12T19:25:51.301Z,12.00
2018-08-12T19:26:50.356Z,8.00
2018-08-12T19:27:49.872Z,8.00
2018-08-12T19:28:50.037Z,4.00
2018-08-12T19:29:49.789Z,8.00
2018-08-12T19:30:49.974Z,4.00
2018-08-12T19:31:49.717Z,4.00
2018-08-12T19:32:49.768Z,0.00
2018-08-12T19:33:49.706Z,4.00
2018-08-12T19:34:49.698Z,4.00
2018-08-12T19:35:49.556Z,4.00
2018-08-12T19:36:49.644Z,4.00
2018-08-12T19:37:49.538Z,0.00
2018-08-12T19:38:49.505Z,0.00
2018-08-12T19:39:49.488Z,0.00
2018-08-12T19:40:49.470Z,0.00
2018-08-12T19:41:49.446Z,0.00
2018-08-12T19:42:49.476Z,0.00
2018-08-12T19:43:49.847Z,0.00
2018-08-12T19:44:49.362Z,0.00
2018-08-12T19:45:49.356Z,0.00
2018-08-12T19:47:11.349Z,0.00
2018-08-12T19:48:45.650Z,0.00
2018-08-12T19:49:45.768Z,0.00
2018-08-12T19:51:45.641Z,0.00
2018-08-12T19:52:46.077Z,0.00
2018-08-12T19:54:43.931Z,0.00
2018-08-12T19:55:42.498Z,0.00
2018-08-12T19:57:41.890Z,0.00
2018-08-12T19:58:41.644Z,0.00
2018-08-12T20:00:45.865Z,0.00
2018-08-12T20:01:46.434Z,0.00
2018-08-12T20:03:40.687Z,0.00
2018-08-12T20:04:40.006Z,0.00
2018-08-12T20:06:46.687Z,0.00
2018-08-12T20:07:46.203Z,0.00
2018-08-12T20:09:50.146Z,0.00
2018-08-12T20:10:49.858Z,0.00
2018-08-12T20:12:53.692Z,0.00
2018-08-12T20:13:53.275Z,0.00
2018-08-12T20:15:56.186Z,0.00
2018-08-12T20:16:55.849Z,0.00
2018-08-12T20:18:53.985Z,0.00
2018-08-12T20:19:55.004Z,0.00
2018-08-12T20:21:54.309Z,0.00
2018-08-12T20:22:53.819Z,0.00
2018-08-12T20:24:54.394Z,0.00
2018-08-12T20:25:53.326Z,0.00
2018-08-12T20:27:54.088Z,0.00
2018-08-12T20:28:51.862Z,0.00
2018-08-12T20:30:58.111Z,0.00
2018-08-12T20:31:57.101Z,0.00
2018-08-12T20:32:56.642Z,0.00
2018-08-12T20:33:58.692Z,0.00
2018-08-12T20:34:57.173Z,0.00
2018-08-12T20:35:56.292Z,0.00
2018-08-12T20:36:57.558Z,0.00
2018-08-12T20:37:55.966Z,0.00
2018-08-12T20:38:55.915Z,0.00
2018-08-12T20:39:57.647Z,0.00
2018-08-12T20:40:55.966Z,0.00
2018-08-12T20:41:55.790Z,0.00
2018-08-12T20:42:55.674Z,0.00
2018-08-12T20:43:55.732Z,0.00
2018-08-12T20:44:55.648Z,0.00
2018-08-12T20:45:55.649Z,0.00
2018-08-12T20:46:55.579Z,0.00
2018-08-12T20:47:55.555Z,0.00
2018-08-12T20:48:55.798Z,0.00
2018-08-12T20:49:55.506Z,0.00
2018-08-12T20:50:55.481Z,0.00
2018-08-12T20:51:55.482Z,0.00
2018-08-12T20:52:55.439Z,0.00
2018-08-12T20:53:56.983Z,0.00
2018-08-12T20:55:15.249Z,0.00
2018-08-12T20:56:55.143Z,0.00
2018-08-12T20:57:54.016Z,0.00
2018-08-12T20:59:49.107Z,0.00
2018-08-12T21:00:49.331Z,0.00
2018-08-12T21:02:54.465Z,0.00
2018-08-12T21:03:50.964Z,0.00
2018-08-12T21:05:47.604Z,0.00
2018-08-12T21:06:48.394Z,0.00
2018-08-12T21:08:46.221Z,0.00
2018-08-12T21:09:44.220Z,0.00
2018-08-12T21:11:41.288Z,0.00
2018-08-12T21:12:41.062Z,0.00
2018-08-12T21:14:47.201Z,0.00
2018-08-12T21:15:46.169Z,0.00
2018-08-12T21:16:45.859Z,0.00
2018-08-12T21:17:46.980Z,0.00
2018-08-12T21:18:45.664Z,0.00
2018-08-12T21:19:45.465Z,0.00
2018-08-12T21:20:47.207Z,0.00
2018-08-12T21:21:45.095Z,0.00
2018-08-12T21:22:45.071Z,0.00
2018-08-12T21:23:45.049Z,0.00
2018-08-12T21:24:45.019Z,0.00
2018-08-12T21:25:45.220Z,0.00
2018-08-12T21:26:45.033Z,0.00
2018-08-12T21:27:45.057Z,0.00
2018-08-12T21:28:45.186Z,0.00
2018-08-12T21:30:09.899Z,0.00
2018-08-12T21:31:50.934Z,0.00
2018-08-12T21:32:49.454Z,0.00
2018-08-12T21:34:51.311Z,0.00
2018-08-12T21:35:50.739Z,0.00
2018-08-12T21:38:00.255Z,0.00
2018-08-12T21:39:00.822Z,0.00
2018-08-12T21:40:00.311Z,0.00
2018-08-12T21:41:00.890Z,0.00
2018-08-12T21:42:00.272Z,0.00
2018-08-12T21:43:00.022Z,0.00
2018-08-12T21:43:59.641Z,0.00
2018-08-12T21:45:17.086Z,0.00
2018-08-12T21:47:16.968Z,0.00
2018-08-12T21:50:30.684Z,0.00
2018-08-12T21:51:31.189Z,0.00
2018-08-12T21:56:01.096Z,0.00
2018-08-12T21:56:13.170Z,0.00
2018-08-12T21:58:16.770Z,0.00
2018-08-12T21:59:16.440Z,0.00
2018-08-12T22:01:18.898Z,0.00
2018-08-12T22:02:18.797Z,0.00
2018-08-12T22:04:24.594Z,0.00
2018-08-12T22:05:25.306Z,0.00
2018-08-12T22:07:29.323Z,0.00
2018-08-12T22:08:28.953Z,0.00
2018-08-12T22:10:37.726Z,0.00
2018-08-12T22:11:38.403Z,0.00
2018-08-12T22:12:37.497Z,0.00
2018-08-12T22:13:37.535Z,0.00
2018-08-12T22:14:37.961Z,0.00
2018-08-12T22:15:37.349Z,0.00
2018-08-12T22:16:37.943Z,0.00
2018-08-12T22:17:36.974Z,0.00
2018-08-12T22:18:36.987Z,0.00
2018-08-12T22:19:36.979Z,0.00
2018-08-12T22:20:36.910Z,0.00
2018-08-12T22:21:37.906Z,0.00
2018-08-12T22:22:36.871Z,0.00
2018-08-12T22:23:36.860Z,0.00
2018-08-12T22:24:36.854Z,0.00
2018-08-12T22:25:36.828Z,0.00
2018-08-12T22:26:36.795Z,0.00
2018-08-12T22:27:36.753Z,0.00
2018-08-12T22:28:36.732Z,0.00
2018-08-12T22:29:36.717Z,0.00
2018-08-12T22:30:36.767Z,0.00
2018-08-12T22:31:36.643Z,0.00
2018-08-12T22:32:36.640Z,0.00
2018-08-12T22:33:36.674Z,0.00
2018-08-12T22:34:36.576Z,0.00
2018-08-12T22:35:36.573Z,0.00
2018-08-12T22:36:36.561Z,0.00
2018-08-12T22:37:36.535Z,0.00
2018-08-12T22:38:38.335Z,0.00
2018-08-12T22:39:36.563Z,0.00
2018-08-12T22:40:36.445Z,0.00
2018-08-12T22:41:36.480Z,0.00
2018-08-12T22:42:36.493Z,0.00
2018-08-12T22:43:36.413Z,0.00
2018-08-12T22:44:36.333Z,0.00
2018-08-12T22:45:36.359Z,0.00
2018-08-12T22:46:36.433Z,0.00
2018-08-12T22:47:36.279Z,0.00
2018-08-12T22:48:36.317Z,0.00
2018-08-12T22:49:36.312Z,0.00
2018-08-12T22:50:36.273Z,0.00
2018-08-12T22:51:36.162Z,0.00
2018-08-12T22:52:36.172Z,0.00
2018-08-12T22:53:36.183Z,0.00
2018-08-12T22:54:36.158Z,0.00
2018-08-12T22:55:36.169Z,0.00
2018-08-12T22:56:36.064Z,0.00
2018-08-12T22:57:36.012Z,0.00
2018-08-12T22:58:36.055Z,0.00
2018-08-12T22:59:36.044Z,0.00
2018-08-12T23:00:35.993Z,0.00
2018-08-12T23:01:35.971Z,0.00
2018-08-12T23:02:35.942Z,0.00
2018-08-12T23:03:36.029Z,0.00
2018-08-12T23:04:35.873Z,0.00
2018-08-12T23:05:35.839Z,0.00
2018-08-12T23:06:35.842Z,0.00
2018-08-12T23:07:35.852Z,0.00
2018-08-12T23:08:36.070Z,0.00
2018-08-12T23:09:35.729Z,0.00
2018-08-12T23:10:35.726Z,0.00
2018-08-12T23:11:35.677Z,0.00
2018-08-12T23:12:35.650Z,0.00
2018-08-12T23:13:35.785Z,0.00
2018-08-12T23:14:35.602Z,0.00
2018-08-12T23:15:35.650Z,0.00
2018-08-12T23:16:35.595Z,0.00
2018-08-12T23:17:35.535Z,0.00
2018-08-12T23:18:35.499Z,0.00
2018-08-12T23:19:35.534Z,0.00
2018-08-12T23:20:35.452Z,0.00
2018-08-12T23:21:35.545Z,0.00
2018-08-12T23:22:37.007Z,0.00
2018-08-12T23:23:35.430Z,0.00
2018-08-12T23:24:35.374Z,0.00
2018-08-12T23:25:35.481Z,0.00
2018-08-12T23:26:35.394Z,0.00
2018-08-12T23:27:35.297Z,0.00
2018-08-12T23:28:35.271Z,0.00
2018-08-12T23:29:35.235Z,0.00
2018-08-12T23:30:35.206Z,0.00
2018-08-12T23:31:35.184Z,0.00
2018-08-12T23:32:35.272Z,0.00
2018-08-12T23:33:35.247Z,0.00
2018-08-12T23:34:35.289Z,0.00
2018-08-12T23:35:35.098Z,0.00
2018-08-12T23:36:35.157Z,0.00
2018-08-12T23:37:35.047Z,0.00
2018-08-12T23:38:36.451Z,0.00
2018-08-12T23:39:35.034Z,0.00
2018-08-12T23:40:34.959Z,0.00
2018-08-12T23:41:34.977Z,0.00
2018-08-12T23:42:34.910Z,0.00
2018-08-12T23:43:34.895Z,0.00
2018-08-12T23:44:34.866Z,0.00
2018-08-12T23:45:48.011Z,0.00
2018-08-12T23:47:31.895Z,0.00
2018-08-12T23:48:32.153Z,0.00
2018-08-12T23:50:29.522Z,0.00
2018-08-12T23:51:30.020Z,0.00
2018-08-12T23:53:25.592Z,0.00
2018-08-12T23:54:25.609Z,0.00
2018-08-12T23:55:25.435Z,0.00
2018-08-12T23:56:25.254Z,0.00
2018-08-12T23:57:25.115Z,0.00
2018-08-12T23:58:25.071Z,0.00
2018-08-12T23:59:24.961Z,0.00
